Dette er en eldre versjon av Prisjakt. Klikk her for å gå til nye Prisjakt

Polar M430

 Legg i liste  Sammenlign
Sammenlign priser på alle Polar Pulsklokker og sportsklokker (12)

Popularitetsutvikling

7. mest populær i kategorien Pulsklokker og sportsklokker - 151. totalt på Prisjakt

Prisutvikling

Prishistorikk

Nedenfor vises de siste prisendringene som har skjedd for produktet i hver butikk. Hvis en butikk selger flere versjoner av produktet, vises her den siste prisendringen for hver variant.

  Butikk Dato  Prisendring Pris Produktbeskrivelse
Proshop.no 2019-12-06 -1,-   1 606,-  Polar M430 White
Proshop.no 2019-12-06 -1,-   1 606,-  Polar M430 Orange
Proshop.no 2019-12-06 -1,-   1 606,-  Polar M430 White
Proshop.no 2019-12-06 -1,-   1 606,-  Polar M430 Sort
ComputerSalg 2019-12-05  Ny pris 1 697,-  Polar M430 - GPS-klokke - løp - S
ComputerSalg 2019-12-05  Ny pris 1 697,-  Polar M430 - GPS-klokke - løp - M/L
G Sport 2019-12-04   +190,- 1 389,-  Polar M430 pulsklokke black one_size
Outnorth 2019-12-04   +579,- 1 999,-  Polar M430 OneSize, Black
Outnorth 2019-12-04   +579,- 1 999,-  Polar M430 OneSize, White
Outnorth 2019-12-04   +579,- 1 999,-  Polar M430 OneSize, Orange
ComputerSalg 2019-12-04   +46,- 2 619,-  Polar M430 S
Sport-Tiedje 2019-12-03  Ny pris 1 506,- Polar M430 GPS-Løpeklokke Svart – L
Sport-Tiedje 2019-12-03  Ny pris 1 506,- Polar M430 GPS-Løpeklokke Hvit – S
ComputerSalg 2019-12-03   +52,- 1 697,-  Polar M430 black small
ComputerSalg 2019-12-03   +52,- 1 697,-  Polar M430 - GPS-klokke - løp
ComputerSalg 2019-12-03   +52,- 1 697,-  Polar M430 - GPS-klokke - løp - M/L
ComputerSalg 2019-12-03   +52,- 1 697,-  Polar M430 - GPS-klokke - løp - M/L
Elkjøp 2019-12-03   +360,- 1 559,-  Polar M430 HR treningsklokke (hvit)
XXL Sport & Villmark 2019-12-02   +190,- 1 389,-  Polar M430 HR GPS Black, pulsklokke BLACK ONE
XXL Sport & Villmark 2019-12-02   +190,- 1 389,-  Polar M430 HR GPS White, pulsklokke White ONE
Foss Sport 2019-12-02   +460,- 2 299,-   Polar M430 White
Foss Sport 2019-12-02   +460,- 2 299,-  Polar M430 Black Pulsklokke med GPS
Power 2019-12-01   +360,- 1 559,-  POLAR M430 SPORTW.M/L WH
Ellos 2019-11-17  Ny pris 1 999,-  Polar Pulsklokke M430 OHR M/L Svart
CDON 2019-11-16  Ny pris 2 449,-  POLAR Polar Pulsklocka M430 OHR M/L Svart
Teknikproffset 2019-11-16  Ny pris 2 449,-  Polar Pulsklocka M430 OHR M/L Svart
CDON 2019-11-12  Ny pris 2 449,-  POLAR Polar Pulsklocka M430 OHR M/L Vit
CDON 2019-11-12  Ny pris 2 449,-  POLAR Polar Pulsklocka M430 OHR Small Vit
Milrab 2019-11-12   +180,- 1 559,-  POLAR M430 - Klokke Svart
Milrab 2019-11-12   +180,- 1 559,-  POLAR M430 S - Klokke Hvit
Milrab 2019-11-12   +180,- 1 559,-  POLAR M430 - Klokke Oransje
Milrab 2019-11-12   +180,- 1 559,-  POLAR M430 - Klokke Hvit
CDON 2019-10-29   +19,- 1 909,-  POLAR Pulsklocka M430 OHR Small Vit
CDON 2019-10-29 -70,-   1 909,-  POLAR Pulsklocka M430 OHR M/L Svart
CDON 2019-10-29 -70,-   1 909,-  POLAR Pulsklocka M430 OHR M/L Vit
Hetland Sport 2019-10-24  Ny pris 2 299,- Polar M430 pulsklokke
Gjertsen Sport 2019-10-22  Ny pris 2 290,- Polar M430 White
Teknikproffset 2019-10-21  Ny pris 2 449,-  Polar Pulsklocka M430 OHR M/L Vit
Teknikproffset 2019-10-21  Ny pris 2 449,-  Polar Pulsklocka M430 OHR Small Vit
Dustin Home 2019-10-19   +100,- 1 995,-  Polar Pulsklokke M430 OHR Small Hvit Hvit (90067355)
Dustin Home 2019-10-19   +100,- 1 995,-  Polar Pulsklokke M430 OHR Medium/Large Hvit Hvit (90064407)
Dustin Home 2019-10-19   +100,- 1 995,-  Polar Pulsklokke M430 OHR Medium/Large Svart Svart (90066337)
Torshov Sport Løp 2019-10-17 -800,-   1 500,- Polar M430 Sort
Polar 2019-09-11  Ny pris 1 999,- Polar M430 Svart
Ellos 2019-08-21  Ny pris 1 999,-  Polar Pulsklokke M430 OHR M/L hvit
Get Inspired 2019-07-22  Ny pris 2 299,- Polar M430
Get Inspired 2019-07-22  Ny pris 2 299,- Polar M430
Ellos 2019-06-08  Ny pris 1 999,-  Polar Pulsklokke M430 OHR Small Hvit
Polar 2019-05-29  Ny pris 1 999,- Polar M430 Hvit
Polar 2019-05-29  Ny pris 1 999,- Polar M430 Svart
Polar 2019-05-29  Ny pris 1 999,- Polar M430 Oransje
Polar 2019-05-29  Ny pris 1 999,- Polar M430 Hvit
Sportamore 2019-04-11  Ny pris 1 995,-  Polar M430 OHR Ingen
Sportamore 2019-03-06  Ny pris 1 995,-  Polar M430 OHR Ingen
Brukås Sport 2018-09-05  Ny pris 2 299,- Polar M430 Sort Ns
Treningspartner 2018-08-29 -291,-   1 699,-  Polar M430 Sort
Treningspartner 2018-08-29 -291,-   1 699,-  Polar M430 Orange
Dahlmans Sykkel 2018-03-28  Ny pris 1 998,-  Polar M430